createdAt,value
2018-07-21T00:00:10.285Z,20.30
2018-07-21T00:02:38.770Z,20.12
2018-07-21T00:05:07.356Z,20.10
2018-07-21T00:07:35.797Z,20.06
2018-07-21T00:10:04.421Z,19.93
2018-07-21T00:12:32.897Z,20.08
2018-07-21T00:15:01.435Z,19.93
2018-07-21T00:17:29.872Z,19.89
2018-07-21T00:19:58.389Z,19.89
2018-07-21T00:22:26.955Z,19.92
2018-07-21T00:24:55.464Z,19.92
2018-07-21T00:27:23.937Z,19.91
2018-07-21T00:29:52.362Z,19.82
2018-07-21T00:32:20.937Z,19.80
2018-07-21T00:34:49.465Z,19.69
2018-07-21T00:37:18.067Z,19.72
2018-07-21T00:39:46.687Z,19.69
2018-07-21T00:42:15.330Z,19.70
2018-07-21T00:44:43.892Z,19.67
2018-07-21T00:47:12.377Z,19.70
2018-07-21T00:49:41.026Z,19.69
2018-07-21T00:52:09.575Z,19.66
2018-07-21T00:54:38.096Z,19.57
2018-07-21T00:57:06.658Z,19.52
2018-07-21T00:59:35.150Z,19.41
2018-07-21T01:02:03.837Z,19.38
2018-07-21T01:04:32.325Z,19.33
2018-07-21T01:07:00.837Z,19.40
2018-07-21T01:09:29.427Z,19.37
2018-07-21T01:11:57.922Z,19.38
2018-07-21T01:14:26.411Z,19.28
2018-07-21T01:16:54.925Z,19.27
2018-07-21T01:19:23.365Z,19.32
2018-07-21T01:21:51.888Z,19.24
2018-07-21T01:24:20.430Z,19.19
2018-07-21T01:26:48.968Z,19.12
2018-07-21T01:29:17.450Z,19.11
2018-07-21T01:31:45.994Z,19.00
2018-07-21T01:34:14.533Z,18.88
2018-07-21T01:36:43.119Z,18.88
2018-07-21T01:39:12.193Z,18.83
2018-07-21T01:41:41.093Z,18.76
2018-07-21T01:44:09.566Z,18.63
2018-07-21T01:46:38.025Z,18.51
2018-07-21T01:49:06.558Z,18.51
2018-07-21T01:51:34.985Z,18.57
2018-07-21T01:54:03.539Z,18.63
2018-07-21T01:56:32.056Z,18.61
2018-07-21T01:59:00.617Z,18.54
2018-07-21T02:01:29.124Z,18.52
2018-07-21T02:03:57.671Z,18.51
2018-07-21T02:06:26.116Z,18.51
2018-07-21T02:08:54.650Z,18.50
2018-07-21T02:11:23.140Z,18.48
2018-07-21T02:13:51.636Z,18.43
2018-07-21T02:16:20.114Z,18.43
2018-07-21T02:18:48.836Z,18.37
2018-07-21T02:21:17.307Z,18.31
2018-07-21T02:23:45.964Z,18.24
2018-07-21T02:26:14.591Z,18.21
2018-07-21T02:28:43.062Z,18.11
2018-07-21T02:31:11.565Z,18.17
2018-07-21T02:33:40.049Z,18.09
2018-07-21T02:36:08.578Z,17.96
2018-07-21T02:38:37.041Z,17.96
2018-07-21T02:41:05.524Z,18.00
2018-07-21T02:43:34.092Z,17.97
2018-07-21T02:46:02.581Z,17.96
2018-07-21T02:48:31.046Z,17.94
2018-07-21T02:50:59.542Z,17.89
2018-07-21T02:53:27.971Z,17.86
2018-07-21T02:55:59.348Z,17.86
2018-07-21T02:58:28.759Z,17.80
2018-07-21T03:00:57.233Z,17.71
2018-07-21T03:03:25.646Z,17.60
2018-07-21T03:05:54.133Z,17.65
2018-07-21T03:08:22.601Z,17.70
2018-07-21T03:10:51.181Z,17.76
2018-07-21T03:13:19.691Z,17.80
2018-07-21T03:15:48.163Z,17.82
2018-07-21T03:18:16.703Z,17.71
2018-07-21T03:20:45.199Z,17.59
2018-07-21T03:23:13.702Z,17.49
2018-07-21T03:25:42.223Z,17.49
2018-07-21T03:28:10.650Z,17.56
2018-07-21T03:30:39.094Z,17.61
2018-07-21T03:33:07.565Z,17.66
2018-07-21T03:35:36.057Z,17.64
2018-07-21T03:38:04.860Z,17.66
2018-07-21T03:40:33.490Z,17.59
2018-07-21T03:43:01.978Z,17.63
2018-07-21T03:45:30.454Z,17.52
2018-07-21T03:47:59.009Z,17.61
2018-07-21T03:50:27.537Z,17.61
2018-07-21T03:52:56.117Z,17.60
2018-07-21T03:55:24.600Z,17.60
2018-07-21T03:57:54.357Z,17.58
2018-07-21T04:00:22.797Z,17.57
2018-07-21T04:02:51.365Z,17.56
2018-07-21T04:05:19.919Z,17.56
2018-07-21T04:07:48.434Z,17.56
2018-07-21T04:10:16.913Z,17.58
2018-07-21T04:12:45.609Z,17.62
2018-07-21T04:15:14.156Z,17.61
2018-07-21T04:17:42.701Z,17.64
2018-07-21T04:20:11.189Z,17.60
2018-07-21T04:22:39.618Z,17.64
2018-07-21T04:25:08.204Z,17.73
2018-07-21T04:27:36.693Z,17.80
2018-07-21T04:30:05.517Z,17.87
2018-07-21T04:32:33.960Z,17.93
2018-07-21T04:35:02.571Z,17.92
2018-07-21T04:37:31.084Z,17.98
2018-07-21T04:39:59.513Z,17.94
2018-07-21T04:42:28.019Z,18.09
2018-07-21T04:44:56.645Z,18.15
2018-07-21T04:47:25.115Z,18.25
2018-07-21T04:49:53.603Z,18.31
2018-07-21T04:52:22.110Z,18.36
2018-07-21T04:54:50.637Z,18.41
2018-07-21T04:57:19.250Z,18.45
2018-07-21T04:59:47.744Z,18.50
2018-07-21T05:02:16.242Z,18.62
2018-07-21T05:04:44.727Z,18.71
2018-07-21T05:07:13.313Z,18.69
2018-07-21T05:09:41.788Z,18.85
2018-07-21T05:12:11.090Z,18.90
2018-07-21T05:14:39.586Z,18.99
2018-07-21T05:17:08.209Z,18.95
2018-07-21T05:19:36.766Z,19.09
2018-07-21T05:22:05.214Z,19.25
2018-07-21T05:24:33.669Z,19.34
2018-07-21T05:27:02.343Z,19.35
2018-07-21T05:29:30.802Z,19.28
2018-07-21T05:31:59.274Z,19.12
2018-07-21T05:34:27.810Z,19.31
2018-07-21T05:36:56.287Z,19.35
2018-07-21T05:39:25.198Z,19.56
2018-07-21T05:41:53.887Z,19.60
2018-07-21T05:44:22.342Z,19.51
2018-07-21T05:46:50.825Z,19.64
2018-07-21T05:49:19.227Z,19.74
2018-07-21T05:51:47.711Z,19.89
2018-07-21T05:54:16.304Z,20.02
2018-07-21T05:56:44.799Z,20.68
2018-07-21T05:59:13.333Z,21.37
2018-07-21T06:01:41.772Z,21.30
2018-07-21T06:04:10.286Z,22.06
2018-07-21T06:06:38.784Z,22.20
2018-07-21T06:09:09.043Z,22.23
2018-07-21T06:11:37.521Z,22.48
2018-07-21T06:14:06.177Z,22.63
2018-07-21T06:16:34.715Z,22.92
2018-07-21T06:19:03.108Z,23.48
2018-07-21T06:21:31.569Z,23.31
2018-07-21T06:24:00.094Z,23.67
2018-07-21T06:26:28.724Z,23.86
2018-07-21T06:28:57.203Z,23.49
2018-07-21T06:31:25.682Z,23.37
2018-07-21T06:33:54.094Z,23.35
2018-07-21T06:36:22.898Z,23.51
2018-07-21T06:38:51.451Z,23.37
2018-07-21T06:41:19.877Z,23.24
2018-07-21T06:43:48.500Z,23.46
2018-07-21T06:46:16.999Z,23.27
2018-07-21T06:48:45.521Z,23.67
2018-07-21T06:51:14.058Z,24.19
2018-07-21T06:53:42.591Z,24.11
2018-07-21T06:56:13.329Z,23.82
2018-07-21T06:58:44.366Z,24.57
2018-07-21T07:01:15.201Z,25.33
2018-07-21T07:03:43.750Z,25.50
2018-07-21T07:06:12.321Z,25.06
2018-07-21T07:08:40.801Z,25.14
2018-07-21T07:11:09.363Z,24.69
2018-07-21T07:13:37.828Z,24.73
2018-07-21T07:16:06.659Z,24.92
2018-07-21T07:18:35.188Z,24.99
2018-07-21T07:21:05.101Z,24.98
2018-07-21T07:23:33.623Z,25.08
2018-07-21T07:26:03.633Z,25.22
2018-07-21T07:28:34.642Z,25.17
2018-07-21T07:31:05.497Z,25.12
2018-07-21T07:33:36.942Z,25.18
2018-07-21T07:36:05.493Z,25.63
2018-07-21T07:38:34.839Z,25.73
2018-07-21T07:41:05.562Z,25.79
2018-07-21T07:43:34.574Z,25.60
2018-07-21T07:46:06.271Z,25.88
2018-07-21T07:48:34.764Z,26.00
2018-07-21T07:51:04.048Z,26.18
2018-07-21T07:53:34.922Z,25.92
2018-07-21T07:56:03.939Z,25.95
2018-07-21T07:58:32.607Z,25.74
2018-07-21T08:01:03.442Z,26.09
2018-07-21T08:03:32.190Z,25.78
2018-07-21T08:06:01.749Z,25.99
2018-07-21T08:08:30.864Z,25.82
2018-07-21T08:10:59.629Z,25.91
2018-07-21T08:13:28.250Z,25.74
2018-07-21T08:15:56.986Z,25.99
2018-07-21T08:18:25.623Z,26.23
2018-07-21T08:20:54.424Z,26.36
2018-07-21T08:23:23.798Z,26.50
2018-07-21T08:25:52.328Z,26.29
2018-07-21T08:28:21.060Z,26.58
2018-07-21T08:30:49.802Z,26.97
2018-07-21T08:33:18.313Z,26.71
2018-07-21T08:35:46.710Z,26.81
2018-07-21T08:38:15.376Z,26.73
2018-07-21T08:40:43.956Z,26.76
2018-07-21T08:43:12.603Z,26.87
2018-07-21T08:45:42.886Z,26.99
2018-07-21T08:48:11.392Z,26.89
2018-07-21T08:50:40.187Z,26.92
2018-07-21T08:53:08.889Z,26.53
2018-07-21T08:55:37.274Z,26.79
2018-07-21T08:58:05.809Z,26.73
2018-07-21T09:00:34.387Z,26.75
2018-07-21T09:03:03.115Z,26.91
2018-07-21T09:05:31.556Z,27.31
2018-07-21T09:08:00.093Z,27.49
2018-07-21T09:10:29.048Z,27.39
2018-07-21T09:12:57.532Z,27.46
2018-07-21T09:15:26.050Z,27.31
2018-07-21T09:17:54.701Z,27.36
2018-07-21T09:20:37.550Z,27.12
2018-07-21T09:23:06.047Z,27.20
2018-07-21T09:25:34.678Z,27.46
2018-07-21T09:28:03.207Z,27.39
2018-07-21T09:30:31.840Z,27.57
2018-07-21T09:33:00.845Z,28.04
2018-07-21T09:35:29.378Z,28.31
2018-07-21T09:37:57.903Z,27.98
2018-07-21T09:40:26.637Z,27.95
2018-07-21T09:42:55.274Z,27.86
2018-07-21T09:45:24.286Z,28.34
2018-07-21T09:50:57.324Z,28.78
2018-07-21T09:54:37.102Z,28.49
2018-07-21T09:57:06.224Z,28.43
2018-07-21T09:59:35.462Z,28.34
2018-07-21T10:02:04.670Z,28.43
2018-07-21T10:04:34.349Z,28.91
2018-07-21T10:07:04.296Z,28.52
2018-07-21T10:09:33.146Z,28.31
2018-07-21T10:12:01.808Z,28.39
2018-07-21T10:14:30.936Z,28.42
2018-07-21T10:16:59.648Z,28.88
2018-07-21T10:19:30.051Z,29.01
2018-07-21T10:21:59.726Z,28.61
2018-07-21T10:24:33.679Z,28.71
2018-07-21T10:27:09.224Z,28.97
2018-07-21T10:29:40.545Z,28.61
2018-07-21T10:32:12.182Z,29.02
2018-07-21T10:34:42.981Z,29.04
2018-07-21T10:53:18.312Z,28.42
2018-07-21T10:55:47.011Z,28.37
2018-07-21T10:58:15.644Z,28.69
2018-07-21T11:00:44.215Z,28.59
2018-07-21T11:03:12.746Z,28.57
2018-07-21T11:05:41.640Z,28.53
2018-07-21T11:08:10.533Z,28.81
2018-07-21T11:10:39.045Z,29.05
2018-07-21T11:13:07.598Z,28.82
2018-07-21T11:15:36.073Z,29.00
2018-07-21T11:18:05.015Z,29.25
2018-07-21T11:20:33.691Z,29.12
2018-07-21T11:23:02.808Z,29.37
2018-07-21T11:25:31.657Z,28.79
2018-07-21T11:28:00.676Z,28.87
2018-07-21T11:30:29.256Z,28.80
2018-07-21T11:32:58.153Z,28.49
2018-07-21T11:35:26.841Z,28.76
2018-07-21T11:37:55.540Z,28.76
2018-07-21T11:40:24.213Z,28.75
2018-07-21T11:42:53.373Z,28.77
2018-07-21T11:45:22.318Z,29.20
2018-07-21T11:47:51.578Z,28.91
2018-07-21T11:50:20.461Z,29.06
2018-07-21T11:52:49.478Z,29.07
2018-07-21T11:55:18.442Z,29.10
2018-07-21T11:57:47.350Z,28.85
2018-07-21T12:00:16.440Z,28.91
2018-07-21T12:02:45.337Z,28.99
2018-07-21T12:05:14.481Z,29.03
2018-07-21T12:07:43.336Z,29.09
2018-07-21T12:10:12.243Z,29.34
2018-07-21T12:12:44.361Z,29.12
2018-07-21T12:15:13.100Z,29.13
2018-07-21T12:17:42.157Z,29.21
2018-07-21T12:20:11.640Z,29.58
2018-07-21T12:25:31.456Z,29.25
2018-07-21T12:28:00.636Z,29.38
2018-07-21T12:30:29.350Z,29.51
2018-07-21T12:32:58.248Z,29.47
2018-07-21T12:35:27.311Z,29.18
2018-07-21T12:37:56.440Z,29.35
2018-07-21T12:40:25.099Z,29.46
2018-07-21T12:42:53.585Z,29.32
2018-07-21T12:45:22.386Z,29.48
2018-07-21T12:47:52.917Z,29.54
2018-07-21T12:50:22.204Z,29.69
2018-07-21T12:52:50.999Z,29.48
2018-07-21T12:55:21.007Z,29.68
2018-07-21T12:57:49.531Z,29.56
2018-07-21T13:00:18.215Z,29.48
2018-07-21T13:02:47.694Z,29.39
2018-07-21T13:05:18.459Z,29.73
2018-07-21T13:07:47.154Z,29.84
2018-07-21T13:10:17.210Z,29.71
2018-07-21T13:12:46.104Z,29.79
2018-07-21T13:15:16.227Z,29.72
2018-07-21T13:17:45.391Z,29.54
2018-07-21T13:20:14.217Z,29.42
2018-07-21T13:22:43.788Z,29.32
2018-07-21T13:25:12.904Z,29.21
2018-07-21T13:27:41.528Z,29.43
2018-07-21T13:30:11.018Z,29.41
2018-07-21T13:32:40.901Z,29.47
2018-07-21T13:35:12.043Z,29.62
2018-07-21T13:37:40.601Z,29.66
2018-07-21T13:40:10.743Z,29.79
2018-07-21T13:42:39.410Z,29.80
2018-07-21T13:45:10.210Z,29.95
2018-07-21T13:47:41.133Z,29.84
2018-07-21T13:50:15.214Z,29.71
2018-07-21T13:52:47.408Z,29.83
2018-07-21T13:55:19.983Z,29.90
2018-07-21T13:57:49.189Z,29.42
2018-07-21T14:00:21.494Z,29.47
2018-07-21T14:02:52.985Z,29.40
2018-07-21T14:05:22.157Z,29.58
2018-07-21T14:07:51.307Z,29.68
2018-07-21T14:10:19.950Z,29.75
2018-07-21T14:12:48.877Z,29.72
2018-07-21T14:15:17.735Z,29.76
2018-07-21T14:17:49.154Z,29.56
2018-07-21T14:20:19.193Z,29.65
2018-07-21T14:22:48.173Z,29.58
2018-07-21T14:25:17.499Z,29.75
2018-07-21T14:27:46.551Z,29.58
2018-07-21T14:30:15.391Z,29.64
2018-07-21T14:32:44.056Z,29.53
2018-07-21T14:35:12.990Z,29.50
2018-07-21T14:37:41.956Z,29.61
2018-07-21T14:40:11.319Z,29.77
2018-07-21T14:42:40.459Z,29.86
2018-07-21T14:45:09.882Z,29.96
2018-07-21T14:47:38.529Z,30.08
2018-07-21T14:50:07.983Z,29.64
2018-07-21T14:52:36.698Z,29.88
2018-07-21T14:55:05.652Z,30.03
2018-07-21T14:57:34.248Z,29.98
2018-07-21T15:00:03.160Z,29.89
2018-07-21T15:02:31.747Z,30.14
2018-07-21T15:05:00.288Z,29.76
2018-07-21T15:07:28.808Z,29.88
2018-07-21T15:09:57.640Z,30.05
2018-07-21T15:12:26.075Z,30.08
2018-07-21T15:14:54.687Z,30.02
2018-07-21T15:17:23.142Z,30.03
2018-07-21T15:19:51.745Z,30.03
2018-07-21T15:22:20.329Z,29.88
2018-07-21T15:24:48.778Z,30.03
2018-07-21T15:27:18.334Z,30.00
2018-07-21T15:29:47.348Z,29.90
2018-07-21T15:32:15.800Z,29.96
2018-07-21T15:34:44.620Z,29.79
2018-07-21T15:37:13.170Z,29.67
2018-07-21T15:39:42.009Z,29.56
2018-07-21T15:42:10.869Z,29.64
2018-07-21T15:44:39.780Z,29.57
2018-07-21T15:47:10.640Z,29.54
2018-07-21T15:49:39.243Z,29.40
2018-07-21T15:52:07.913Z,29.28
2018-07-21T15:54:36.572Z,29.31
2018-07-21T15:57:05.256Z,29.34
2018-07-21T15:59:33.999Z,29.30
2018-07-21T16:02:02.707Z,29.46
2018-07-21T16:04:31.147Z,29.44
2018-07-21T16:06:59.639Z,29.29
2018-07-21T16:09:28.157Z,29.33
2018-07-21T16:11:56.535Z,29.25
2018-07-21T16:14:24.990Z,29.30
2018-07-21T16:16:53.538Z,29.18
2018-07-21T16:19:22.097Z,29.15
2018-07-21T16:21:50.887Z,29.15
2018-07-21T16:24:19.779Z,29.07
2018-07-21T16:26:48.368Z,29.14
2018-07-21T16:29:16.864Z,29.07
2018-07-21T16:31:45.357Z,29.00
2018-07-21T16:34:14.676Z,29.08
2018-07-21T16:36:43.420Z,29.05
2018-07-21T16:39:12.605Z,29.01
2018-07-21T16:41:41.340Z,29.08
2018-07-21T16:44:10.405Z,29.15
2018-07-21T16:46:39.722Z,29.15
2018-07-21T16:49:08.611Z,29.21
2018-07-21T16:51:37.113Z,29.17
2018-07-21T16:54:07.801Z,29.02
2018-07-21T16:56:36.245Z,29.09
2018-07-21T16:59:04.868Z,29.08
2018-07-21T17:01:33.349Z,29.09
2018-07-21T17:04:01.753Z,29.01
2018-07-21T17:06:30.243Z,29.01
2018-07-21T17:08:58.863Z,28.89
2018-07-21T17:11:27.270Z,28.83
2018-07-21T17:13:55.823Z,28.77
2018-07-21T17:16:24.307Z,28.69
2018-07-21T17:18:53.114Z,28.61
2018-07-21T17:21:21.651Z,28.58
2018-07-21T17:23:50.185Z,28.47
2018-07-21T17:26:18.746Z,28.47
2018-07-21T17:28:47.260Z,28.49
2018-07-21T17:31:15.683Z,28.49
2018-07-21T17:33:44.156Z,28.41
2018-07-21T17:36:12.629Z,28.42
2018-07-21T17:38:41.332Z,28.38
2018-07-21T17:41:10.727Z,28.25
2018-07-21T17:43:39.273Z,28.26
2018-07-21T17:46:08.123Z,28.20
2018-07-21T17:48:36.780Z,28.25
2018-07-21T17:51:05.460Z,28.16
2018-07-21T17:53:33.991Z,28.12
2018-07-21T17:56:02.361Z,28.09
2018-07-21T17:58:30.864Z,28.05
2018-07-21T18:00:59.726Z,28.01
2018-07-21T18:03:28.163Z,27.88
2018-07-21T18:05:56.892Z,27.85
2018-07-21T18:08:25.462Z,27.87
2018-07-21T18:10:53.935Z,27.84
2018-07-21T18:13:22.449Z,27.86
2018-07-21T18:15:51.124Z,27.80
2018-07-21T18:18:19.618Z,27.79
2018-07-21T18:20:48.287Z,27.80
2018-07-21T18:23:16.774Z,27.76
2018-07-21T18:25:45.566Z,27.68
2018-07-21T18:28:14.155Z,27.71
2018-07-21T18:30:42.979Z,27.66
2018-07-21T18:33:11.617Z,27.59
2018-07-21T18:35:40.072Z,27.53
2018-07-21T18:38:08.475Z,27.51
2018-07-21T18:40:37.067Z,27.55
2018-07-21T18:43:05.688Z,27.49
2018-07-21T18:45:34.155Z,27.47
2018-07-21T18:48:03.047Z,27.45
2018-07-21T18:50:31.691Z,27.38
2018-07-21T18:53:00.161Z,27.33
2018-07-21T18:55:28.770Z,27.29
2018-07-21T18:57:57.474Z,27.23
2018-07-21T19:00:26.375Z,27.23
2018-07-21T19:02:55.003Z,27.17
2018-07-21T19:05:23.760Z,27.15
2018-07-21T19:07:52.919Z,27.11
2018-07-21T19:10:22.397Z,27.09
2018-07-21T19:12:51.639Z,26.99
2018-07-21T19:15:25.605Z,26.99
2018-07-21T19:17:54.425Z,26.94
2018-07-21T19:20:28.315Z,26.92
2018-07-21T19:22:56.933Z,26.86
2018-07-21T19:25:31.014Z,26.83
2018-07-21T19:27:59.555Z,26.78
2018-07-21T19:30:28.215Z,26.72
2018-07-21T19:33:01.139Z,26.74
2018-07-21T19:35:31.220Z,26.68
2018-07-21T19:38:00.113Z,26.73
2018-07-21T19:40:29.132Z,26.64
2018-07-21T19:42:57.777Z,26.68
2018-07-21T19:45:26.624Z,26.59
2018-07-21T19:47:55.474Z,26.46
2018-07-21T19:50:24.241Z,26.42
2018-07-21T19:52:52.852Z,26.46
2018-07-21T19:55:21.599Z,26.44
2018-07-21T19:57:50.650Z,26.40
2018-07-21T20:00:19.249Z,26.19
2018-07-21T20:02:47.933Z,26.17
2018-07-21T20:05:16.701Z,26.13
2018-07-21T20:07:46.104Z,26.13
2018-07-21T20:10:14.994Z,26.04
2018-07-21T20:12:46.269Z,26.00
2018-07-21T20:15:15.945Z,25.86
2018-07-21T20:17:45.363Z,25.78
2018-07-21T20:20:14.350Z,25.71
2018-07-21T20:22:42.890Z,25.61
2018-07-21T20:25:13.475Z,25.47
2018-07-21T20:27:41.958Z,25.47
2018-07-21T20:30:12.880Z,25.41
2018-07-21T20:32:44.134Z,25.44
2018-07-21T20:35:16.986Z,25.35
2018-07-21T20:37:46.107Z,25.33
2018-07-21T20:40:16.121Z,25.27
2018-07-21T20:42:46.544Z,25.23
2018-07-21T20:45:15.527Z,25.20
2018-07-21T20:47:44.778Z,25.12
2018-07-21T20:50:15.517Z,25.10
2018-07-21T20:52:44.249Z,25.01
2018-07-21T20:55:14.073Z,25.01
2018-07-21T20:57:44.137Z,25.01
2018-07-21T21:00:16.070Z,24.98
2018-07-21T21:02:46.159Z,24.93
2018-07-21T21:05:15.997Z,24.93
2018-07-21T21:07:46.864Z,24.96
2018-07-21T21:10:15.573Z,24.85
2018-07-21T21:12:45.039Z,24.74
2018-07-21T21:15:16.199Z,24.75
2018-07-21T21:17:44.986Z,24.73
2018-07-21T21:20:14.130Z,24.71
2018-07-21T21:22:45.059Z,24.72
2018-07-21T21:25:15.248Z,24.67
2018-07-21T21:27:43.754Z,24.65
2018-07-21T21:30:13.739Z,24.61
2018-07-21T21:32:42.769Z,24.53
2018-07-21T21:35:12.467Z,24.51
2018-07-21T21:37:47.621Z,24.42
2018-07-21T21:40:16.242Z,24.41
2018-07-21T21:42:48.630Z,24.43
2018-07-21T21:45:19.420Z,24.47
2018-07-21T21:47:47.897Z,24.39
2018-07-21T21:50:16.462Z,24.39
2018-07-21T21:52:44.931Z,24.35
2018-07-21T21:55:13.775Z,24.34
2018-07-21T21:57:42.232Z,24.38
2018-07-21T22:00:13.179Z,24.44
2018-07-21T22:02:42.038Z,24.39
2018-07-21T22:05:11.481Z,24.35
2018-07-21T22:07:40.078Z,24.28
2018-07-21T22:10:08.601Z,24.25
2018-07-21T22:12:39.402Z,24.23
2018-07-21T22:15:15.761Z,24.17
2018-07-21T22:17:48.585Z,24.14
2018-07-21T22:20:19.141Z,24.13
2018-07-21T22:22:50.549Z,23.96
2018-07-21T22:25:19.310Z,23.89
2018-07-21T22:27:47.894Z,23.85
2018-07-21T22:30:20.594Z,23.82
2018-07-21T22:32:49.493Z,23.73
2018-07-21T22:35:18.093Z,23.77
2018-07-21T22:37:46.646Z,23.74
2018-07-21T22:40:15.394Z,23.71
2018-07-21T22:42:43.879Z,23.65
2018-07-21T22:45:12.393Z,23.63
2018-07-21T22:47:41.264Z,23.61
2018-07-21T22:50:09.993Z,23.58
2018-07-21T22:52:38.620Z,23.54
2018-07-21T22:55:07.248Z,23.52
2018-07-21T22:57:36.398Z,23.56
2018-07-21T23:00:05.774Z,23.53
2018-07-21T23:02:34.324Z,23.54
2018-07-21T23:05:03.010Z,23.51
2018-07-21T23:07:32.443Z,23.53
2018-07-21T23:10:00.910Z,23.48
2018-07-21T23:12:59.923Z,23.43
2018-07-21T23:15:28.427Z,23.44
2018-07-21T23:17:57.085Z,23.39
2018-07-21T23:20:25.661Z,23.33
2018-07-21T23:22:54.409Z,23.33
2018-07-21T23:25:23.098Z,23.30
2018-07-21T23:27:51.846Z,23.25
2018-07-21T23:30:20.385Z,23.27
2018-07-21T23:32:49.190Z,23.24
2018-07-21T23:35:17.775Z,23.20
2018-07-21T23:37:46.364Z,23.19
2018-07-21T23:40:14.863Z,23.16
2018-07-21T23:42:43.408Z,23.12
2018-07-21T23:45:12.027Z,23.12
2018-07-21T23:47:40.555Z,23.06
2018-07-21T23:50:09.183Z,23.12
2018-07-21T23:52:37.741Z,23.15
2018-07-21T23:55:07.344Z,23.11
2018-07-21T23:57:35.962Z,23.06
